sensor_id;sensor_type;location;lat;lon;timestamp;pressure;altitude;pressure_sealevel;temperature;humidity
75409;BME280;63979;55.644;37.734;2022-10-16T00:00:06;101460.75;;;5.50;64.78
75409;BME280;63979;55.644;37.734;2022-10-16T00:05:07;101473.06;;;5.53;65.30
75409;BME280;63979;55.644;37.734;2022-10-16T00:10:08;101464.56;;;5.39;65.19
75409;BME280;63979;55.644;37.734;2022-10-16T00:15:11;101475.88;;;5.45;65.26
75409;BME280;63979;55.644;37.734;2022-10-16T00:20:14;101442.94;;;5.17;65.11
75409;BME280;63979;55.644;37.734;2022-10-16T00:25:34;101481.53;;;5.28;65.89
75409;BME280;63979;55.644;37.734;2022-10-16T00:30:38;101473.72;;;5.22;65.38
75409;BME280;63979;55.644;37.734;2022-10-16T00:35:39;101479.06;;;5.19;65.75
75409;BME280;63979;55.644;37.734;2022-10-16T00:40:40;101486.22;;;5.14;66.38
75409;BME280;63979;55.644;37.734;2022-10-16T00:45:45;101463.59;;;4.98;65.89
75409;BME280;63979;55.644;37.734;2022-10-16T00:50:46;101486.28;;;5.11;66.22
75409;BME280;63979;55.644;37.734;2022-10-16T00:55:47;101490.78;;;5.06;66.58
75409;BME280;63979;55.644;37.734;2022-10-16T01:00:47;101490.94;;;4.98;66.98
75409;BME280;63979;55.644;37.734;2022-10-16T01:06:11;101455.50;;;4.59;66.70
75409;BME280;63979;55.644;37.734;2022-10-16T01:17:02;101503.34;;;4.95;66.93
75409;BME280;63979;55.644;37.734;2022-10-16T01:22:05;101463.34;;;4.64;66.88
75409;BME280;63979;55.644;37.734;2022-10-16T01:27:23;101509.69;;;4.85;66.82
75409;BME280;63979;55.644;37.734;2022-10-16T01:32:33;101511.47;;;4.84;67.11
75409;BME280;63979;55.644;37.734;2022-10-16T01:38:05;101519.50;;;4.78;67.10
75409;BME280;63979;55.644;37.734;2022-10-16T01:43:12;101516.09;;;4.73;67.44
75409;BME280;63979;55.644;37.734;2022-10-16T01:48:17;101513.66;;;4.61;68.33
75409;BME280;63979;55.644;37.734;2022-10-16T01:53:18;101524.28;;;4.58;68.30
75409;BME280;63979;55.644;37.734;2022-10-16T01:58:21;101510.38;;;4.45;68.27
75409;BME280;63979;55.644;37.734;2022-10-16T02:03:24;101523.50;;;4.53;68.42
75409;BME280;63979;55.644;37.734;2022-10-16T02:08:28;101523.50;;;4.53;68.18
75409;BME280;63979;55.644;37.734;2022-10-16T02:13:38;101517.47;;;4.43;69.03
75409;BME280;63979;55.644;37.734;2022-10-16T02:18:41;101527.97;;;4.46;68.53
75409;BME280;63979;55.644;37.734;2022-10-16T02:29:09;101481.91;;;4.07;68.68
75409;BME280;63979;55.644;37.734;2022-10-16T02:34:12;101544.03;;;4.35;68.80
75409;BME280;63979;55.644;37.734;2022-10-16T02:39:15;101493.44;;;4.01;68.97
75409;BME280;63979;55.644;37.734;2022-10-16T02:44:17;101531.13;;;4.14;69.18
75409;BME280;63979;55.644;37.734;2022-10-16T02:49:18;101542.41;;;4.27;68.85
75409;BME280;63979;55.644;37.734;2022-10-16T02:54:20;101542.53;;;4.18;69.12
75409;BME280;63979;55.644;37.734;2022-10-16T02:59:21;101495.38;;;3.90;68.80
75409;BME280;63979;55.644;37.734;2022-10-16T03:04:22;101537.38;;;4.08;69.35
75409;BME280;63979;55.644;37.734;2022-10-16T03:09:23;101547.03;;;4.11;69.67
75409;BME280;63979;55.644;37.734;2022-10-16T03:14:24;101474.56;;;3.67;69.48
75409;BME280;63979;55.644;37.734;2022-10-16T03:19:25;101554.22;;;4.00;69.49
75409;BME280;63979;55.644;37.734;2022-10-16T03:24:27;101563.88;;;4.02;69.92
75409;BME280;63979;55.644;37.734;2022-10-16T03:29:28;101553.50;;;3.89;69.56
75409;BME280;63979;55.644;37.734;2022-10-16T03:34:30;101564.81;;;3.98;69.86
75409;BME280;63979;55.644;37.734;2022-10-16T03:39:31;101542.09;;;3.87;69.56
75409;BME280;63979;55.644;37.734;2022-10-16T03:44:32;101560.53;;;3.91;70.65
75409;BME280;63979;55.644;37.734;2022-10-16T03:49:33;101559.66;;;3.89;69.99
75409;BME280;63979;55.644;37.734;2022-10-16T03:54:34;101569.31;;;3.92;70.28
75409;BME280;63979;55.644;37.734;2022-10-16T03:59:35;101571.97;;;3.92;69.68
75409;BME280;63979;55.644;37.734;2022-10-16T04:04:36;101564.94;;;3.89;70.12
75409;BME280;63979;55.644;37.734;2022-10-16T04:09:37;101565.81;;;3.90;70.15
75409;BME280;63979;55.644;37.734;2022-10-16T04:14:39;101576.25;;;4.00;69.97
75409;BME280;63979;55.644;37.734;2022-10-16T04:19:40;101581.53;;;4.00;69.27
75409;BME280;63979;55.644;37.734;2022-10-16T04:24:41;101574.41;;;4.05;69.26
75409;BME280;63979;55.644;37.734;2022-10-16T04:29:42;101578.22;;;5.00;67.09
75409;BME280;63979;55.644;37.734;2022-10-16T04:34:43;101579.88;;;6.00;62.80
75409;BME280;63979;55.644;37.734;2022-10-16T04:39:44;101577.50;;;6.65;59.24
75409;BME280;63979;55.644;37.734;2022-10-16T04:44:46;101579.47;;;7.57;57.16
75409;BME280;63979;55.644;37.734;2022-10-16T04:49:48;101574.16;;;8.75;53.55
75409;BME280;63979;55.644;37.734;2022-10-16T04:54:49;101580.50;;;9.74;50.62
75409;BME280;63979;55.644;37.734;2022-10-16T04:59:51;101587.09;;;10.79;47.34
75409;BME280;63979;55.644;37.734;2022-10-16T05:04:52;101573.97;;;11.55;45.24
75409;BME280;63979;55.644;37.734;2022-10-16T05:09:53;101585.94;;;12.06;43.75
75409;BME280;63979;55.644;37.734;2022-10-16T05:14:55;101585.69;;;12.50;41.60
75409;BME280;63979;55.644;37.734;2022-10-16T05:19:59;101586.09;;;12.03;43.24
75409;BME280;63979;55.644;37.734;2022-10-16T05:25:00;101581.53;;;12.43;43.05
75409;BME280;63979;55.644;37.734;2022-10-16T05:30:02;101599.13;;;14.05;38.85
75409;BME280;63979;55.644;37.734;2022-10-16T05:35:04;101603.28;;;14.11;37.43
75409;BME280;63979;55.644;37.734;2022-10-16T05:40:06;101593.47;;;14.75;36.11
75409;BME280;63979;55.644;37.734;2022-10-16T05:45:10;101598.81;;;16.64;32.93
75409;BME280;63979;55.644;37.734;2022-10-16T05:50:12;101554.97;;;16.48;31.88
75409;BME280;63979;55.644;37.734;2022-10-16T05:55:13;101599.59;;;18.23;31.56
75409;BME280;63979;55.644;37.734;2022-10-16T06:00:15;101594.53;;;18.19;29.81
75409;BME280;63979;55.644;37.734;2022-10-16T06:05:16;101597.97;;;18.83;28.74
75409;BME280;63979;55.644;37.734;2022-10-16T06:10:17;101611.59;;;18.81;28.77
75409;BME280;63979;55.644;37.734;2022-10-16T06:15:18;101620.38;;;19.09;28.06
75409;BME280;63979;55.644;37.734;2022-10-16T06:20:19;101608.59;;;20.24;28.17
75409;BME280;63979;55.644;37.734;2022-10-16T06:25:20;101569.41;;;20.51;25.34
75409;BME280;63979;55.644;37.734;2022-10-16T06:30:21;101618.25;;;21.37;25.36
75409;BME280;63979;55.644;37.734;2022-10-16T06:35:22;101613.72;;;22.40;24.26
75409;BME280;63979;55.644;37.734;2022-10-16T06:40:24;101614.47;;;24.63;22.22
75409;BME280;63979;55.644;37.734;2022-10-16T06:45:25;101613.53;;;22.72;22.93
75409;BME280;63979;55.644;37.734;2022-10-16T06:50:26;101592.31;;;22.66;23.41
75409;BME280;63979;55.644;37.734;2022-10-16T06:55:27;101620.25;;;23.38;22.65
75409;BME280;63979;55.644;37.734;2022-10-16T07:00:29;101595.00;;;24.11;21.47
75409;BME280;63979;55.644;37.734;2022-10-16T07:05:30;101624.09;;;25.48;20.74
75409;BME280;63979;55.644;37.734;2022-10-16T07:10:32;101627.91;;;27.01;19.85
75409;BME280;63979;55.644;37.734;2022-10-16T07:15:33;101634.69;;;27.47;18.94
75409;BME280;63979;55.644;37.734;2022-10-16T07:20:34;101626.69;;;28.34;17.08
75409;BME280;63979;55.644;37.734;2022-10-16T07:25:36;101640.38;;;27.78;17.79
75409;BME280;63979;55.644;37.734;2022-10-16T07:30:37;101628.69;;;27.44;17.70
75409;BME280;63979;55.644;37.734;2022-10-16T07:35:38;101640.88;;;27.82;17.54
75409;BME280;63979;55.644;37.734;2022-10-16T07:40:47;101637.66;;;28.50;17.21
75409;BME280;63979;55.644;37.734;2022-10-16T07:45:49;101642.50;;;28.23;16.65
75409;BME280;63979;55.644;37.734;2022-10-16T07:50:51;101630.69;;;29.93;16.97
75409;BME280;63979;55.644;37.734;2022-10-16T07:55:54;101635.56;;;30.79;14.96
75409;BME280;63979;55.644;37.734;2022-10-16T08:00:58;101634.03;;;31.49;14.58
75409;BME280;63979;55.644;37.734;2022-10-16T08:06:00;101646.53;;;29.53;16.25
75409;BME280;63979;55.644;37.734;2022-10-16T08:11:01;101643.19;;;29.12;16.65
75409;BME280;63979;55.644;37.734;2022-10-16T08:16:05;101641.72;;;28.62;16.95
75409;BME280;63979;55.644;37.734;2022-10-16T08:21:20;101639.31;;;26.12;19.12
75409;BME280;63979;55.644;37.734;2022-10-16T08:26:22;101642.03;;;26.12;18.75
75409;BME280;63979;55.644;37.734;2022-10-16T08:31:24;101641.03;;;26.39;18.78
75409;BME280;63979;55.644;37.734;2022-10-16T08:36:28;101627.00;;;26.16;18.68
75409;BME280;63979;55.644;37.734;2022-10-16T08:41:50;101638.28;;;27.56;17.18
75409;BME280;63979;55.644;37.734;2022-10-16T08:52:11;101624.47;;;28.84;16.34
75409;BME280;63979;55.644;37.734;2022-10-16T08:57:19;101630.88;;;29.91;15.56
75409;BME280;63979;55.644;37.734;2022-10-16T09:23:47;101610.16;;;28.50;16.25
75409;BME280;63979;55.644;37.734;2022-10-16T09:28:48;101619.59;;;27.51;16.48
75409;BME280;63979;55.644;37.734;2022-10-16T09:33:53;101618.63;;;29.33;14.97
75409;BME280;63979;55.644;37.734;2022-10-16T09:39:08;101608.63;;;30.96;14.07
75409;BME280;63979;55.644;37.734;2022-10-16T09:49:26;101612.66;;;28.29;15.81
75409;BME280;63979;55.644;37.734;2022-10-16T09:54:27;101610.97;;;30.04;15.54
75409;BME280;63979;55.644;37.734;2022-10-16T09:59:28;101609.09;;;27.06;16.88
75409;BME280;63979;55.644;37.734;2022-10-16T10:04:41;101603.28;;;27.25;16.78
75409;BME280;63979;55.644;37.734;2022-10-16T10:09:45;101600.88;;;27.30;17.19
75409;BME280;63979;55.644;37.734;2022-10-16T10:14:49;101590.84;;;26.89;16.86
75409;BME280;63979;55.644;37.734;2022-10-16T10:19:59;101595.31;;;26.98;16.77
75409;BME280;63979;55.644;37.734;2022-10-16T10:30:42;101587.56;;;29.25;15.65
75409;BME280;63979;55.644;37.734;2022-10-16T11:07:41;101547.00;;;26.81;16.97
75409;BME280;63979;55.644;37.734;2022-10-16T11:12:59;101572.59;;;27.14;16.72
75409;BME280;63979;55.644;37.734;2022-10-16T11:23:43;101527.34;;;28.14;16.90
75409;BME280;63979;55.644;37.734;2022-10-16T11:28:51;101555.78;;;27.25;18.08
75409;BME280;63979;55.644;37.734;2022-10-16T11:34:25;101563.91;;;26.68;17.85
75409;BME280;63979;55.644;37.734;2022-10-16T11:39:30;101545.72;;;26.59;17.70
75409;BME280;63979;55.644;37.734;2022-10-16T11:49:55;101515.38;;;23.88;20.45
75409;BME280;63979;55.644;37.734;2022-10-16T11:55:20;101541.28;;;25.82;18.67
75409;BME280;63979;55.644;37.734;2022-10-16T12:00:38;101543.69;;;25.41;18.70
75409;BME280;63979;55.644;37.734;2022-10-16T12:11:54;101524.38;;;27.60;17.13
75409;BME280;63979;55.644;37.734;2022-10-16T12:16:30;101539.16;;;25.49;19.10
75409;BME280;63979;55.644;37.734;2022-10-16T12:21:31;101525.06;;;24.83;19.77
75409;BME280;63979;55.644;37.734;2022-10-16T12:26:37;101526.31;;;25.68;19.11
75409;BME280;63979;55.644;37.734;2022-10-16T12:31:44;101491.94;;;24.23;20.72
75409;BME280;63979;55.644;37.734;2022-10-16T12:36:46;101534.06;;;22.98;21.89
75409;BME280;63979;55.644;37.734;2022-10-16T12:42:01;101514.81;;;23.28;21.55
75409;BME280;63979;55.644;37.734;2022-10-16T12:47:03;101517.34;;;23.59;21.37
75409;BME280;63979;55.644;37.734;2022-10-16T12:52:04;101534.28;;;20.70;24.37
75409;BME280;63979;55.644;37.734;2022-10-16T13:28:43;101516.63;;;16.71;31.29
75409;BME280;63979;55.644;37.734;2022-10-16T13:33:47;101517.47;;;16.58;31.56
75409;BME280;63979;55.644;37.734;2022-10-16T13:39:10;101529.97;;;15.76;33.15
75409;BME280;63979;55.644;37.734;2022-10-16T13:44:19;101529.50;;;14.65;35.77
75409;BME280;63979;55.644;37.734;2022-10-16T13:49:20;101532.06;;;14.20;36.72
75409;BME280;63979;55.644;37.734;2022-10-16T13:54:22;101523.50;;;13.97;37.21
75409;BME280;63979;55.644;37.734;2022-10-16T13:59:27;101521.47;;;13.85;37.25
75409;BME280;63979;55.644;37.734;2022-10-16T14:04:33;101521.44;;;13.02;39.70
75409;BME280;63979;55.644;37.734;2022-10-16T14:09:35;101508.56;;;12.74;40.28
75409;BME280;63979;55.644;37.734;2022-10-16T14:14:57;101516.16;;;12.47;41.15
75409;BME280;63979;55.644;37.734;2022-10-16T14:20:05;101517.25;;;12.43;41.05
75409;BME280;63979;55.644;37.734;2022-10-16T14:25:20;101510.44;;;12.18;41.45
75409;BME280;63979;55.644;37.734;2022-10-16T14:30:22;101520.91;;;12.04;42.17
75409;BME280;63979;55.644;37.734;2022-10-16T14:40:35;101530.47;;;11.71;42.42
75409;BME280;63979;55.644;37.734;2022-10-16T14:45:38;101528.38;;;11.59;42.87
75409;BME280;63979;55.644;37.734;2022-10-16T14:50:42;101521.34;;;11.56;43.21
75409;BME280;63979;55.644;37.734;2022-10-16T14:55:44;101493.47;;;11.22;43.91
75409;BME280;63979;55.644;37.734;2022-10-16T15:00:45;101527.50;;;11.38;43.89
75409;BME280;63979;55.644;37.734;2022-10-16T15:05:47;101527.22;;;11.44;43.84
75409;BME280;63979;55.644;37.734;2022-10-16T15:10:48;101486.31;;;11.03;44.02
75409;BME280;63979;55.644;37.734;2022-10-16T15:15:49;101496.19;;;11.01;44.33
75409;BME280;63979;55.644;37.734;2022-10-16T15:20:50;101540.53;;;11.05;44.78
75409;BME280;63979;55.644;37.734;2022-10-16T15:25:53;101535.94;;;10.88;45.60
75409;BME280;63979;55.644;37.734;2022-10-16T15:30:56;101517.50;;;10.82;45.32
75409;BME280;63979;55.644;37.734;2022-10-16T15:35:58;101523.97;;;10.76;46.09
75409;BME280;63979;55.644;37.734;2022-10-16T15:41:00;101464.38;;;10.32;45.99
75409;BME280;63979;55.644;37.734;2022-10-16T15:46:06;101537.69;;;10.67;46.63
75409;BME280;63979;55.644;37.734;2022-10-16T15:51:09;101530.06;;;10.58;46.70
75409;BME280;63979;55.644;37.734;2022-10-16T15:56:13;101485.13;;;10.25;47.99
75409;BME280;63979;55.644;37.734;2022-10-16T16:01:14;101516.66;;;10.38;47.61
75409;BME280;63979;55.644;37.734;2022-10-16T16:06:16;101521.13;;;10.37;47.56
75409;BME280;63979;55.644;37.734;2022-10-16T16:11:18;101522.44;;;10.27;47.61
75409;BME280;63979;55.644;37.734;2022-10-16T16:16:19;101522.31;;;10.07;48.65
75409;BME280;63979;55.644;37.734;2022-10-16T16:21:20;101530.03;;;10.14;48.08
75409;BME280;63979;55.644;37.734;2022-10-16T16:26:24;101527.16;;;10.20;47.96
75409;BME280;63979;55.644;37.734;2022-10-16T16:31:28;101515.06;;;10.10;48.01
75409;BME280;63979;55.644;37.734;2022-10-16T16:36:29;101506.47;;;9.80;48.96
75409;BME280;63979;55.644;37.734;2022-10-16T16:41:30;101514.03;;;9.67;49.21
75409;BME280;63979;55.644;37.734;2022-10-16T16:46:32;101533.50;;;9.69;49.40
75409;BME280;63979;55.644;37.734;2022-10-16T16:51:34;101476.94;;;9.38;49.48
75409;BME280;63979;55.644;37.734;2022-10-16T16:56:36;101530.25;;;9.61;49.50
75409;BME280;63979;55.644;37.734;2022-10-16T17:01:37;101525.28;;;9.52;49.71
75409;BME280;63979;55.644;37.734;2022-10-16T17:06:38;101531.41;;;9.54;50.23
75409;BME280;63979;55.644;37.734;2022-10-16T17:11:44;101513.34;;;9.39;50.47
75409;BME280;63979;55.644;37.734;2022-10-16T17:16:46;101523.19;;;9.37;50.48
75409;BME280;63979;55.644;37.734;2022-10-16T17:21:50;101526.72;;;9.37;50.33
75409;BME280;63979;55.644;37.734;2022-10-16T17:26:51;101531.44;;;9.29;50.59
75409;BME280;63979;55.644;37.734;2022-10-16T17:31:55;101520.19;;;9.21;50.72
75409;BME280;63979;55.644;37.734;2022-10-16T17:36:56;101530.63;;;9.02;51.46
75409;BME280;63979;55.644;37.734;2022-10-16T17:41:57;101520.97;;;8.98;51.46
75409;BME280;63979;55.644;37.734;2022-10-16T17:46:58;101532.56;;;8.97;51.27
75409;BME280;63979;55.644;37.734;2022-10-16T17:51:59;101532.44;;;9.00;51.43
75409;BME280;63979;55.644;37.734;2022-10-16T17:57:02;101544.13;;;8.96;50.94
75409;BME280;63979;55.644;37.734;2022-10-16T18:02:03;101531.19;;;8.86;51.82
75409;BME280;63979;55.644;37.734;2022-10-16T18:07:05;101537.50;;;8.83;51.42
75409;BME280;63979;55.644;37.734;2022-10-16T18:12:06;101531.25;;;8.84;51.49
75409;BME280;63979;55.644;37.734;2022-10-16T18:17:08;101491.47;;;8.53;50.84
75409;BME280;63979;55.644;37.734;2022-10-16T18:22:09;101522.75;;;8.73;51.20
75409;BME280;63979;55.644;37.734;2022-10-16T18:27:10;101528.38;;;8.64;51.68
75409;BME280;63979;55.644;37.734;2022-10-16T18:32:12;101524.19;;;8.57;52.24
75409;BME280;63979;55.644;37.734;2022-10-16T18:37:12;101524.38;;;8.51;52.47
75409;BME280;63979;55.644;37.734;2022-10-16T18:42:17;101528.06;;;8.47;51.95
75409;BME280;63979;55.644;37.734;2022-10-16T18:47:18;101528.28;;;8.40;52.60
75409;BME280;63979;55.644;37.734;2022-10-16T18:52:19;101530.06;;;8.40;52.57
75409;BME280;63979;55.644;37.734;2022-10-16T18:57:23;101462.88;;;8.05;52.64
75409;BME280;63979;55.644;37.734;2022-10-16T19:02:27;101470.16;;;7.99;52.31
75409;BME280;63979;55.644;37.734;2022-10-16T19:07:28;101519.97;;;8.22;52.51
75409;BME280;63979;55.644;37.734;2022-10-16T19:12:30;101523.63;;;8.18;52.86
75409;BME280;63979;55.644;37.734;2022-10-16T19:17:31;101515.59;;;8.19;53.07
75409;BME280;63979;55.644;37.734;2022-10-16T19:22:32;101514.22;;;8.07;53.11
75409;BME280;63979;55.644;37.734;2022-10-16T19:27:58;101476.66;;;7.89;53.29
75409;BME280;63979;55.644;37.734;2022-10-16T19:33:01;101510.78;;;8.04;53.55
75409;BME280;63979;55.644;37.734;2022-10-16T19:38:02;101497.84;;;7.92;53.64
75409;BME280;63979;55.644;37.734;2022-10-16T19:43:04;101511.78;;;8.00;53.42
75409;BME280;63979;55.644;37.734;2022-10-16T19:48:06;101517.31;;;7.92;53.43
75409;BME280;63979;55.644;37.734;2022-10-16T19:53:07;101504.56;;;7.75;53.74
75409;BME280;63979;55.644;37.734;2022-10-16T19:58:10;101486.28;;;7.65;53.79
75409;BME280;63979;55.644;37.734;2022-10-16T20:03:11;101520.38;;;7.80;54.22
75409;BME280;63979;55.644;37.734;2022-10-16T20:08:12;101524.06;;;7.74;53.84
75409;BME280;63979;55.644;37.734;2022-10-16T20:13:13;101507.22;;;7.75;54.05
75409;BME280;63979;55.644;37.734;2022-10-16T20:18:15;101509.88;;;7.75;54.14
75409;BME280;63979;55.644;37.734;2022-10-16T20:23:17;101429.78;;;7.29;54.36
75409;BME280;63979;55.644;37.734;2022-10-16T20:28:20;101489.81;;;7.65;54.03
75409;BME280;63979;55.644;37.734;2022-10-16T20:33:22;101505.59;;;7.70;54.04
75409;BME280;63979;55.644;37.734;2022-10-16T20:38:23;101497.94;;;7.59;54.48
75409;BME280;63979;55.644;37.734;2022-10-16T20:43:28;101517.44;;;7.58;54.93
75409;BME280;63979;55.644;37.734;2022-10-16T20:48:30;101503.59;;;7.47;54.98
75409;BME280;63979;55.644;37.734;2022-10-16T20:53:33;101462.72;;;7.22;55.61
75409;BME280;63979;55.644;37.734;2022-10-16T20:58:35;101510.75;;;7.45;55.84
75409;BME280;63979;55.644;37.734;2022-10-16T21:03:37;101434.22;;;6.97;55.86
75409;BME280;63979;55.644;37.734;2022-10-16T21:08:40;101498.69;;;7.33;56.31
75409;BME280;63979;55.644;37.734;2022-10-16T21:13:43;101493.38;;;7.33;55.72
75409;BME280;63979;55.644;37.734;2022-10-16T21:18:44;101497.00;;;7.31;55.61
75409;BME280;63979;55.644;37.734;2022-10-16T21:23:47;101464.16;;;7.02;55.92
75409;BME280;63979;55.644;37.734;2022-10-16T21:28:48;101484.88;;;7.20;56.07
75409;BME280;63979;55.644;37.734;2022-10-16T21:33:50;101486.78;;;7.15;56.03
75409;BME280;63979;55.644;37.734;2022-10-16T21:38:59;101485.19;;;7.10;56.17
75409;BME280;63979;55.644;37.734;2022-10-16T21:44:02;101505.50;;;7.11;56.13
75409;BME280;63979;55.644;37.734;2022-10-16T21:49:06;101490.38;;;7.14;56.48
75409;BME280;63979;55.644;37.734;2022-10-16T21:54:13;101467.03;;;6.93;56.87
75409;BME280;63979;55.644;37.734;2022-10-16T21:59:15;101507.50;;;7.03;56.85
75409;BME280;63979;55.644;37.734;2022-10-16T22:04:17;101499.41;;;7.07;56.92
75409;BME280;63979;55.644;37.734;2022-10-16T22:09:18;101506.47;;;7.08;56.56
75409;BME280;63979;55.644;37.734;2022-10-16T22:14:19;101485.41;;;7.02;56.82
75409;BME280;63979;55.644;37.734;2022-10-16T22:19:21;101498.50;;;7.08;56.45
75409;BME280;63979;55.644;37.734;2022-10-16T22:24:23;101487.13;;;7.03;56.73
75409;BME280;63979;55.644;37.734;2022-10-16T22:29:24;101482.97;;;6.95;56.76
75409;BME280;63979;55.644;37.734;2022-10-16T22:34:25;101499.59;;;7.01;56.64
75409;BME280;63979;55.644;37.734;2022-10-16T22:39:27;101493.63;;;6.92;57.17
75409;BME280;63979;55.644;37.734;2022-10-16T22:44:29;101504.28;;;6.90;56.94
75409;BME280;63979;55.644;37.734;2022-10-16T22:49:33;101500.81;;;6.88;57.13
75409;BME280;63979;55.644;37.734;2022-10-16T22:54:34;101484.47;;;6.71;57.48
75409;BME280;63979;55.644;37.734;2022-10-16T22:59:35;101507.19;;;6.81;57.81
75409;BME280;63979;55.644;37.734;2022-10-16T23:04:36;101512.53;;;6.79;58.51
75409;BME280;63979;55.644;37.734;2022-10-16T23:09:37;101493.25;;;6.73;57.94
75409;BME280;63979;55.644;37.734;2022-10-16T23:14:38;101477.34;;;6.73;57.86
75409;BME280;63979;55.644;37.734;2022-10-16T23:19:39;101479.00;;;6.77;58.00
75409;BME280;63979;55.644;37.734;2022-10-16T23:24:40;101486.13;;;6.75;57.80
75409;BME280;63979;55.644;37.734;2022-10-16T23:29:41;101478.09;;;6.78;57.43
75409;BME280;63979;55.644;37.734;2022-10-16T23:34:42;101446.66;;;6.63;57.54
75409;BME280;63979;55.644;37.734;2022-10-16T23:39:43;101465.81;;;6.74;57.52
75409;BME280;63979;55.644;37.734;2022-10-16T23:44:45;101463.47;;;6.62;58.13
75409;BME280;63979;55.644;37.734;2022-10-16T23:49:46;101473.09;;;6.66;58.38
75409;BME280;63979;55.644;37.734;2022-10-16T23:54:47;101458.94;;;6.67;58.35
75409;BME280;63979;55.644;37.734;2022-10-16T23:59:48;101438.38;;;6.41;59.01
